createdAt,value
2022-07-29T00:00:31.776Z,25.43
2022-07-29T00:04:47.833Z,25.37
2022-07-29T00:09:04.013Z,25.33
2022-07-29T00:13:32.070Z,25.25
2022-07-29T00:17:49.042Z,25.16
2022-07-29T00:22:05.106Z,25.20
2022-07-29T00:26:21.086Z,25.33
2022-07-29T00:30:37.138Z,25.16
2022-07-29T00:35:12.109Z,25.20
2022-07-29T00:39:28.231Z,25.08
2022-07-29T00:43:45.284Z,24.97
2022-07-29T00:48:01.681Z,24.87
2022-07-29T00:52:17.732Z,24.87
2022-07-29T00:56:34.664Z,24.98
2022-07-29T01:00:50.894Z,24.90
2022-07-29T01:05:08.013Z,24.97
2022-07-29T01:09:35.059Z,24.89
2022-07-29T01:14:01.510Z,24.82
2022-07-29T01:18:29.032Z,24.64
2022-07-29T01:22:51.950Z,24.57
2022-07-29T01:27:25.189Z,24.54
2022-07-29T01:31:58.696Z,24.59
2022-07-29T01:36:24.716Z,24.64
2022-07-29T01:40:48.967Z,24.68
2022-07-29T01:45:27.353Z,24.53
2022-07-29T01:49:47.922Z,24.60
2022-07-29T01:54:15.676Z,24.52
2022-07-29T01:58:33.968Z,24.54
2022-07-29T02:02:51.658Z,24.50
2022-07-29T02:07:11.444Z,24.48
2022-07-29T02:11:27.677Z,24.47
2022-07-29T02:15:44.740Z,24.46
2022-07-29T02:20:04.059Z,24.23
2022-07-29T02:24:20.212Z,24.22
2022-07-29T02:28:36.455Z,24.08
2022-07-29T02:32:52.840Z,24.14
2022-07-29T02:37:11.220Z,23.88
2022-07-29T02:41:43.423Z,23.96
2022-07-29T02:46:00.566Z,23.99
2022-07-29T02:50:33.700Z,24.00
2022-07-29T02:54:59.921Z,23.84
2022-07-29T02:59:19.296Z,23.76
2022-07-29T03:03:38.395Z,23.80
2022-07-29T03:08:05.387Z,23.66
2022-07-29T03:12:21.780Z,23.76
2022-07-29T03:16:41.257Z,23.73
2022-07-29T03:20:57.661Z,23.91
2022-07-29T03:25:15.256Z,23.70
2022-07-29T03:29:33.104Z,23.61
2022-07-29T03:33:50.193Z,23.69
2022-07-29T03:38:06.339Z,23.56
2022-07-29T03:42:25.469Z,23.61
2022-07-29T03:46:43.161Z,23.66
2022-07-29T03:50:59.343Z,23.71
2022-07-29T03:55:16.202Z,23.69
2022-07-29T03:59:34.940Z,23.85
2022-07-29T04:03:51.215Z,23.78
2022-07-29T04:08:07.727Z,23.71
2022-07-29T04:12:23.766Z,23.81
2022-07-29T04:16:39.872Z,23.84
2022-07-29T04:20:55.977Z,23.91
2022-07-29T04:25:12.165Z,23.85
2022-07-29T04:29:28.291Z,24.04
2022-07-29T04:33:44.342Z,24.08
2022-07-29T04:38:00.415Z,24.00
2022-07-29T04:42:16.387Z,24.29
2022-07-29T04:46:33.896Z,24.37
2022-07-29T04:50:50.052Z,24.49
2022-07-29T04:55:07.150Z,24.46
2022-07-29T04:59:23.680Z,24.60
2022-07-29T05:03:39.661Z,24.68
2022-07-29T05:07:56.333Z,24.83
2022-07-29T05:12:13.035Z,25.00
2022-07-29T05:16:29.080Z,25.18
2022-07-29T05:20:45.271Z,25.32
2022-07-29T05:25:05.574Z,25.29
2022-07-29T05:29:44.795Z,25.43
2022-07-29T05:34:01.675Z,25.59
2022-07-29T05:38:17.825Z,25.66
2022-07-29T05:42:34.047Z,25.96
2022-07-29T05:46:50.174Z,25.99
2022-07-29T05:51:06.253Z,26.21
2022-07-29T05:55:22.216Z,26.47
2022-07-29T05:59:38.790Z,26.54
2022-07-29T06:03:55.124Z,26.53
2022-07-29T06:08:11.136Z,26.95
2022-07-29T06:12:27.530Z,27.16
2022-07-29T06:16:43.866Z,27.37
2022-07-29T06:21:00.016Z,27.50
2022-07-29T06:25:16.166Z,27.62
2022-07-29T06:29:32.263Z,28.02
2022-07-29T06:33:48.316Z,28.04
2022-07-29T06:38:06.339Z,28.31
2022-07-29T06:42:44.943Z,28.28
2022-07-29T06:47:01.573Z,28.64
2022-07-29T06:51:22.444Z,28.79
2022-07-29T06:55:39.505Z,28.72
2022-07-29T06:59:57.608Z,29.00
2022-07-29T07:04:14.971Z,28.76
2022-07-29T07:08:31.371Z,28.85
2022-07-29T07:12:47.352Z,29.28
2022-07-29T07:17:05.202Z,29.35
2022-07-29T07:21:21.221Z,29.13
2022-07-29T07:25:37.673Z,29.65
2022-07-29T07:29:55.029Z,29.79
2022-07-29T07:34:11.028Z,29.89
2022-07-29T07:38:27.059Z,29.85
2022-07-29T07:42:43.116Z,30.39
2022-07-29T07:47:03.983Z,30.37
2022-07-29T07:51:28.252Z,30.68
2022-07-29T07:56:09.526Z,30.58
2022-07-29T08:00:21.587Z,31.26
2022-07-29T08:04:41.532Z,31.35
2022-07-29T08:09:19.469Z,31.34
2022-07-29T08:13:34.010Z,31.48
2022-07-29T08:17:50.113Z,31.80
2022-07-29T08:22:06.258Z,32.08
2022-07-29T08:26:23.709Z,32.19
2022-07-29T08:30:39.760Z,32.47
2022-07-29T08:34:55.784Z,32.11
2022-07-29T08:39:11.915Z,32.72
2022-07-29T08:43:30.199Z,32.94
2022-07-29T08:47:47.337Z,33.09
2022-07-29T08:52:03.790Z,33.08
2022-07-29T08:56:20.599Z,33.02
2022-07-29T09:00:38.437Z,33.25
2022-07-29T09:04:54.642Z,33.59
2022-07-29T09:09:10.763Z,33.69
2022-07-29T09:13:27.037Z,33.95
2022-07-29T09:17:47.880Z,33.93
2022-07-29T09:22:06.358Z,34.20
2022-07-29T09:26:28.764Z,34.09
2022-07-29T09:30:56.604Z,34.36
2022-07-29T09:35:20.443Z,34.58
2022-07-29T09:39:49.655Z,35.04
2022-07-29T09:44:07.092Z,35.06
2022-07-29T09:48:26.201Z,35.35
2022-07-29T09:52:51.260Z,35.20
2022-07-29T09:57:10.747Z,34.90
2022-07-29T10:01:30.288Z,35.63
2022-07-29T10:05:47.291Z,35.75
2022-07-29T10:10:03.445Z,35.94
2022-07-29T10:14:19.818Z,35.62
2022-07-29T10:18:36.404Z,35.42
2022-07-29T10:22:54.291Z,36.24
2022-07-29T10:27:11.118Z,35.66
2022-07-29T10:31:43.229Z,35.49
2022-07-29T10:36:21.133Z,36.16
2022-07-29T10:41:06.660Z,35.86
2022-07-29T10:45:25.050Z,35.93
2022-07-29T10:49:56.399Z,36.72
2022-07-29T10:54:12.670Z,36.85
2022-07-29T10:58:28.673Z,37.19
2022-07-29T11:02:53.307Z,37.18
2022-07-29T11:07:11.713Z,37.14
2022-07-29T11:11:29.748Z,37.99
2022-07-29T11:15:59.075Z,38.03
2022-07-29T11:20:44.280Z,37.79
2022-07-29T11:29:58.834Z,37.03
2022-07-29T11:34:28.174Z,37.05
2022-07-29T11:38:45.848Z,37.86
2022-07-29T11:43:03.127Z,38.41
2022-07-29T11:47:24.364Z,38.39
2022-07-29T11:51:48.121Z,39.04
2022-07-29T11:56:05.132Z,38.81
2022-07-29T12:00:41.778Z,38.69
2022-07-29T12:04:59.596Z,38.78
2022-07-29T12:09:15.759Z,38.60
2022-07-29T12:13:39.844Z,38.88
2022-07-29T12:17:55.955Z,38.80
2022-07-29T12:22:12.316Z,38.81
2022-07-29T12:26:28.382Z,39.05
2022-07-29T12:30:52.183Z,38.87
2022-07-29T12:35:12.370Z,39.12
2022-07-29T12:39:29.195Z,39.09
2022-07-29T12:43:58.248Z,39.35
2022-07-29T12:48:15.023Z,39.74
2022-07-29T12:52:35.831Z,39.68
2022-07-29T12:57:00.765Z,39.55
2022-07-29T13:01:19.261Z,39.25
2022-07-29T13:05:47.164Z,39.35
2022-07-29T13:10:23.853Z,39.74
2022-07-29T13:14:43.408Z,39.83
2022-07-29T13:19:10.416Z,39.59
2022-07-29T13:23:26.433Z,38.86
2022-07-29T13:27:42.506Z,38.82
2022-07-29T13:31:58.711Z,38.02
2022-07-29T13:36:17.245Z,37.95
2022-07-29T13:40:36.388Z,37.54
2022-07-29T13:44:52.836Z,37.51
2022-07-29T13:49:08.892Z,37.19
2022-07-29T13:53:26.973Z,37.14
2022-07-29T13:57:43.365Z,36.83
2022-07-29T14:01:59.773Z,36.63
2022-07-29T14:06:16.239Z,36.57
2022-07-29T14:10:34.316Z,36.42
2022-07-29T14:14:50.485Z,36.39
2022-07-29T14:19:06.487Z,36.05
2022-07-29T14:23:23.603Z,36.08
2022-07-29T14:27:39.714Z,35.85
2022-07-29T14:31:58.254Z,35.80
2022-07-29T14:36:14.384Z,35.69
2022-07-29T14:40:30.581Z,35.66
2022-07-29T14:44:47.017Z,35.52
2022-07-29T14:49:03.100Z,35.78
2022-07-29T14:53:19.169Z,36.57
2022-07-29T14:57:35.157Z,37.63
2022-07-29T15:01:52.076Z,38.43
2022-07-29T15:06:08.276Z,38.89
2022-07-29T15:10:24.893Z,38.66
2022-07-29T15:14:40.958Z,38.09
2022-07-29T15:19:01.264Z,37.94
2022-07-29T15:23:17.532Z,37.81
2022-07-29T15:27:33.503Z,37.92
2022-07-29T15:31:49.660Z,38.11
2022-07-29T15:36:06.313Z,37.94
2022-07-29T15:40:22.747Z,38.26
2022-07-29T15:44:38.771Z,38.50
2022-07-29T15:48:54.827Z,37.70
2022-07-29T15:53:11.013Z,37.52
2022-07-29T15:57:27.172Z,37.33
2022-07-29T16:01:43.240Z,37.33
2022-07-29T16:05:59.865Z,37.06
2022-07-29T16:10:16.017Z,36.80
2022-07-29T16:14:32.045Z,36.68
2022-07-29T16:18:48.334Z,36.52
2022-07-29T16:23:05.586Z,36.47
2022-07-29T16:27:37.699Z,36.41
2022-07-29T16:31:54.538Z,36.24
2022-07-29T16:36:10.783Z,36.23
2022-07-29T16:40:29.413Z,36.40
2022-07-29T16:44:45.498Z,36.38
2022-07-29T16:49:02.102Z,36.23
2022-07-29T16:53:18.441Z,36.02
2022-07-29T16:57:34.482Z,35.67
2022-07-29T17:01:51.329Z,35.72
2022-07-29T17:06:07.454Z,35.57
2022-07-29T17:10:23.779Z,34.98
2022-07-29T17:14:39.814Z,34.23
2022-07-29T17:18:57.792Z,33.61
2022-07-29T17:23:13.905Z,33.35
2022-07-29T17:27:30.207Z,32.93
2022-07-29T17:31:46.347Z,32.70
2022-07-29T17:36:21.138Z,32.38
2022-07-29T17:40:37.174Z,31.96
2022-07-29T17:44:53.326Z,31.62
2022-07-29T17:49:09.426Z,31.82
2022-07-29T17:53:25.476Z,30.93
2022-07-29T17:57:41.586Z,30.44
2022-07-29T18:01:57.628Z,29.59
2022-07-29T18:06:13.831Z,29.36
2022-07-29T18:10:30.422Z,28.48
2022-07-29T18:14:46.483Z,28.07
2022-07-29T18:19:02.607Z,27.82
2022-07-29T18:23:18.727Z,27.51
2022-07-29T18:27:34.785Z,27.67
2022-07-29T18:31:50.874Z,27.43
2022-07-29T18:36:11.619Z,27.03
2022-07-29T18:40:28.368Z,26.69
2022-07-29T18:44:49.209Z,26.39
2022-07-29T18:49:05.521Z,26.30
2022-07-29T18:53:21.810Z,26.28
2022-07-29T18:57:54.271Z,26.02
2022-07-29T19:02:12.602Z,25.77
2022-07-29T19:06:28.805Z,25.80
2022-07-29T19:10:45.345Z,25.70
2022-07-29T19:15:01.712Z,25.66
2022-07-29T19:19:17.718Z,25.51
2022-07-29T19:24:01.920Z,25.68
2022-07-29T19:28:10.760Z,25.47
2022-07-29T19:32:26.743Z,25.67
2022-07-29T19:36:42.875Z,25.94
2022-07-29T19:40:59.040Z,25.88
2022-07-29T19:45:15.109Z,25.81
2022-07-29T19:49:31.384Z,25.75
2022-07-29T19:53:49.970Z,25.99
2022-07-29T19:58:06.833Z,25.74
2022-07-29T20:02:24.740Z,25.92
2022-07-29T20:06:43.338Z,25.93
2022-07-29T20:10:59.344Z,25.72
2022-07-29T20:15:16.563Z,25.66
2022-07-29T20:19:34.138Z,25.67
2022-07-29T20:23:50.170Z,25.70
2022-07-29T20:28:06.223Z,25.70
2022-07-29T20:32:22.289Z,25.89
2022-07-29T20:36:38.345Z,25.66
2022-07-29T20:40:58.581Z,25.57
2022-07-29T20:45:14.544Z,25.77
2022-07-29T20:49:31.083Z,25.61
2022-07-29T20:53:47.727Z,25.81
2022-07-29T20:58:03.794Z,25.64
2022-07-29T21:02:19.901Z,25.64
2022-07-29T21:06:35.973Z,25.51
2022-07-29T21:10:52.898Z,25.48
2022-07-29T21:15:13.269Z,25.36
2022-07-29T21:19:29.199Z,25.32
2022-07-29T21:23:46.100Z,25.36
2022-07-29T21:28:20.815Z,25.34
2022-07-29T21:32:36.976Z,25.45
2022-07-29T21:36:52.996Z,25.39
2022-07-29T21:41:10.900Z,25.32
2022-07-29T21:45:26.890Z,25.13
2022-07-29T21:49:42.911Z,24.84
2022-07-29T21:53:59.003Z,25.06
2022-07-29T21:58:17.985Z,25.01
2022-07-29T22:02:34.059Z,24.82
2022-07-29T22:06:50.153Z,24.74
2022-07-29T22:11:06.183Z,24.85
2022-07-29T22:15:22.671Z,24.81
2022-07-29T22:19:39.752Z,24.63
2022-07-29T22:23:55.782Z,24.73
2022-07-29T22:28:11.899Z,24.78
2022-07-29T22:32:27.909Z,24.71
2022-07-29T22:36:43.997Z,24.83
2022-07-29T22:41:01.402Z,25.02
2022-07-29T22:45:17.801Z,25.12
2022-07-29T22:49:33.795Z,25.08
2022-07-29T22:53:49.869Z,25.08
2022-07-29T22:58:05.928Z,25.03
2022-07-29T23:02:21.999Z,25.01
2022-07-29T23:06:38.060Z,24.92
2022-07-29T23:10:54.056Z,24.78
2022-07-29T23:15:10.179Z,24.67
2022-07-29T23:19:26.281Z,24.76
2022-07-29T23:23:45.733Z,24.82
2022-07-29T23:28:01.900Z,24.58
2022-07-29T23:32:17.931Z,24.74
2022-07-29T23:36:33.896Z,24.70
2022-07-29T23:40:51.144Z,24.50
2022-07-29T23:45:08.054Z,24.50
2022-07-29T23:49:24.072Z,24.33
2022-07-29T23:53:53.012Z,24.39
2022-07-29T23:58:10.642Z,24.44
